Time,TemperatureF,DewpointF,PressureIn,WindDirection,WindDirectionDegrees,WindSpeedMPH,WindSpeedGustMPH,Humidity,HourlyPrecipIn,Conditions,Clouds,dailyrainin,SoftwareType,DateUTC
2013-04-21 00:00:00,45.5,41.0,30.36,West,270,0.0,0.0,84,0.00,,---,0.00,VWS V14.01,2013-04-21 07:00:00,
2013-04-21 00:05:00,45.5,41.0,30.36,West,270,0.0,0.0,84,0.00,,---,0.00,VWS V14.01,2013-04-21 07:05:00,
2013-04-21 00:10:00,45.5,41.0,30.36,West,270,0.0,0.0,84,0.00,,---,0.00,VWS V14.01,2013-04-21 07:10:00,
2013-04-21 00:15:00,45.5,41.0,30.36,West,270,0.0,0.0,84,0.00,,---,0.00,VWS V14.01,2013-04-21 07:15:00,
2013-04-21 00:20:00,45.3,40.8,30.36,West,270,0.0,0.0,84,0.00,,---,0.00,VWS V14.01,2013-04-21 07:20:00,
2013-04-21 00:25:00,44.8,40.2,30.36,West,270,0.0,0.0,84,0.00,,---,0.00,VWS V14.01,2013-04-21 07:25:00,
2013-04-21 00:30:00,44.6,40.1,30.36,West,270,0.0,0.0,84,0.00,,---,0.00,VWS V14.01,2013-04-21 07:30:00,
2013-04-21 00:36:00,44.1,39.5,30.36,West,270,0.0,0.0,84,0.00,,---,0.00,VWS V14.01,2013-04-21 07:36:00,
2013-04-21 00:41:00,43.9,39.7,30.36,WSW,248,0.0,0.0,85,0.00,,---,0.00,VWS V14.01,2013-04-21 07:41:00,
2013-04-21 00:46:00,43.7,39.8,30.36,WSW,248,0.0,0.0,86,0.00,,---,0.00,VWS V14.01,2013-04-21 07:46:00,
2013-04-21 00:51:00,43.9,40.0,30.36,WSW,248,0.0,0.0,86,0.00,,---,0.00,VWS V14.01,2013-04-21 07:51:00,
2013-04-21 00:56:00,43.7,39.8,30.36,WSW,248,0.0,0.0,86,0.00,,---,0.00,VWS V14.01,2013-04-21 07:56:00,
2013-04-21 01:01:00,43.7,39.8,30.36,WSW,248,0.0,0.0,86,0.00,,---,0.00,VWS V14.01,2013-04-21 08:01:00,
2013-04-21 01:06:00,43.7,40.1,30.39,WSW,248,0.0,0.0,87,0.00,,---,0.00,VWS V14.01,2013-04-21 08:06:00,
2013-04-21 01:11:00,43.7,40.1,30.39,WSW,248,0.0,0.0,87,0.00,,---,0.00,VWS V14.01,2013-04-21 08:11:00,
2013-04-21 01:16:00,43.9,40.3,30.39,North,0,0.0,0.0,87,0.00,,---,0.00,VWS V14.01,2013-04-21 08:16:00,
2013-04-21 01:21:00,43.9,40.3,30.36,North,0,0.0,0.0,87,0.00,,---,0.00,VWS V14.01,2013-04-21 08:21:00,
2013-04-21 01:26:00,44.1,40.7,30.36,North,0,0.0,0.0,88,0.00,,---,0.00,VWS V14.01,2013-04-21 08:26:00,
2013-04-21 01:31:00,44.1,40.7,30.36,WNW,292,0.0,0.0,88,0.00,,---,0.00,VWS V14.01,2013-04-21 08:31:00,
2013-04-21 01:36:00,44.1,41.0,30.36,WNW,292,0.0,0.0,89,0.00,,---,0.00,VWS V14.01,2013-04-21 08:36:00,
2013-04-21 01:41:00,44.1,41.0,30.36,WNW,292,0.0,0.0,89,0.00,,---,0.00,VWS V14.01,2013-04-21 08:41:00,
2013-04-21 01:46:00,44.1,41.0,30.36,WNW,292,0.0,0.0,89,0.00,,---,0.00,VWS V14.01,2013-04-21 08:46:00,
2013-04-21 01:51:00,44.2,41.2,30.33,WNW,292,0.0,0.0,89,0.00,,---,0.00,VWS V14.01,2013-04-21 08:51:00,
2013-04-21 01:56:00,44.2,41.2,30.33,WNW,292,0.0,0.0,89,0.00,,---,0.00,VWS V14.01,2013-04-21 08:56:00,
2013-04-21 02:01:00,44.2,41.2,30.33,WNW,292,0.0,0.0,89,0.00,,---,0.00,VWS V14.01,2013-04-21 09:01:00,
2013-04-21 02:06:00,44.4,41.7,30.33,WNW,292,0.0,0.0,90,0.00,,---,0.00,VWS V14.01,2013-04-21 09:06:00,
2013-04-21 02:11:00,44.4,41.7,30.33,WNW,292,0.0,0.0,90,0.00,,---,0.00,VWS V14.01,2013-04-21 09:11:00,
2013-04-21 02:16:00,44.4,41.7,30.33,WNW,292,0.0,0.0,90,0.00,,---,0.00,VWS V14.01,2013-04-21 09:16:00,
2013-04-21 02:21:00,44.4,41.7,30.36,WNW,292,0.0,0.0,90,0.00,,---,0.00,VWS V14.01,2013-04-21 09:21:00,
2013-04-21 02:26:00,44.6,41.8,30.36,WNW,292,0.0,0.0,90,0.00,,---,0.00,VWS V14.01,2013-04-21 09:26:00,
2013-04-21 02:31:00,44.4,41.7,30.36,SW,225,0.0,0.0,90,0.00,,---,0.00,VWS V14.01,2013-04-21 09:31:00,
2013-04-21 02:36:00,44.4,41.7,30.33,SW,225,0.0,0.0,90,0.00,,---,0.00,VWS V14.01,2013-04-21 09:36:00,
2013-04-21 02:41:00,44.4,41.7,30.33,WSW,248,0.0,0.0,90,0.00,,---,0.00,VWS V14.01,2013-04-21 09:41:00,
2013-04-21 02:46:00,44.4,41.7,30.33,WSW,248,0.0,0.0,90,0.00,,---,0.00,VWS V14.01,2013-04-21 09:46:00,
2013-04-21 02:52:00,44.2,41.5,30.33,WSW,248,0.0,0.0,90,0.00,,---,0.00,VWS V14.01,2013-04-21 09:52:00,
2013-04-21 02:57:00,44.4,41.7,30.33,WSW,248,0.0,0.0,90,0.00,,---,0.00,VWS V14.01,2013-04-21 09:57:00,
2013-04-21 03:02:00,44.4,41.7,30.33,WSW,248,0.0,0.0,90,0.00,,---,0.00,VWS V14.01,2013-04-21 10:02:00,
2013-04-21 03:07:00,44.4,41.7,30.33,WSW,248,0.0,0.0,90,0.00,,---,0.00,VWS V14.01,2013-04-21 10:07:00,
2013-04-21 03:12:00,44.4,41.7,30.33,WSW,248,0.0,0.0,90,0.00,,---,0.00,VWS V14.01,2013-04-21 10:12:00,
2013-04-21 03:17:00,44.4,42.0,30.33,WSW,248,0.0,0.0,91,0.00,,---,0.00,VWS V14.01,2013-04-21 10:17:00,
2013-04-21 03:22:00,44.6,41.8,30.33,WSW,248,0.0,0.0,90,0.00,,---,0.00,VWS V14.01,2013-04-21 10:22:00,
2013-04-21 03:27:00,44.4,42.0,30.33,WSW,248,0.0,0.0,91,0.00,,---,0.00,VWS V14.01,2013-04-21 10:27:00,
2013-04-21 03:32:00,44.4,42.0,30.33,WSW,248,0.0,0.0,91,0.00,,---,0.00,VWS V14.01,2013-04-21 10:32:00,
2013-04-21 03:37:00,44.4,42.0,30.33,WSW,248,0.0,0.0,91,0.00,,---,0.00,VWS V14.01,2013-04-21 10:37:00,
2013-04-21 03:42:00,44.4,42.0,30.33,WSW,248,0.0,0.0,91,0.00,,---,0.00,VWS V14.01,2013-04-21 10:42:00,
2013-04-21 03:47:00,44.4,42.0,30.33,WSW,248,0.0,0.0,91,0.00,,---,0.00,VWS V14.01,2013-04-21 10:47:00,
2013-04-21 03:52:00,44.4,42.0,30.33,WSW,248,0.0,0.0,91,0.00,,---,0.00,VWS V14.01,2013-04-21 10:52:00,
2013-04-21 03:57:00,44.2,41.8,30.33,WSW,248,0.0,0.0,91,0.00,,---,0.00,VWS V14.01,2013-04-21 10:57:00,
2013-04-21 04:02:00,44.2,41.8,30.33,SW,225,0.0,0.0,91,0.00,,---,0.00,VWS V14.01,2013-04-21 11:02:00,
2013-04-21 04:07:00,44.2,41.8,30.33,SW,225,0.0,0.0,91,0.00,,---,0.00,VWS V14.01,2013-04-21 11:07:00,
2013-04-21 04:12:00,44.2,41.8,30.33,SW,225,0.0,0.0,91,0.00,,---,0.00,VWS V14.01,2013-04-21 11:12:00,
2013-04-21 04:17:00,44.2,41.8,30.33,SW,225,0.0,0.0,91,0.00,,---,0.00,VWS V14.01,2013-04-21 11:17:00,
2013-04-21 04:22:00,44.1,41.6,30.33,SW,225,0.0,0.0,91,0.00,,---,0.00,VWS V14.01,2013-04-21 11:22:00,
2013-04-21 04:27:00,44.1,41.6,30.33,SW,225,0.0,0.0,91,0.00,,---,0.00,VWS V14.01,2013-04-21 11:27:00,
2013-04-21 04:32:00,44.1,41.6,30.33,WSW,248,0.0,0.0,91,0.00,,---,0.00,VWS V14.01,2013-04-21 11:32:00,
2013-04-21 04:37:00,43.9,41.7,30.33,WSW,248,0.0,0.0,92,0.00,,---,0.00,VWS V14.01,2013-04-21 11:37:00,
2013-04-21 04:42:00,43.9,41.7,30.33,WSW,248,0.0,0.0,92,0.00,,---,0.00,VWS V14.01,2013-04-21 11:42:00,
2013-04-21 04:47:00,43.9,41.7,30.33,WSW,248,0.0,0.0,92,0.00,,---,0.00,VWS V14.01,2013-04-21 11:47:00,
2013-04-21 04:52:00,43.9,41.7,30.30,WSW,248,0.0,0.0,92,0.00,,---,0.00,VWS V14.01,2013-04-21 11:52:00,
2013-04-21 04:57:00,43.9,41.7,30.30,WSW,248,0.0,0.0,92,0.00,,---,0.00,VWS V14.01,2013-04-21 11:57:00,
2013-04-21 05:02:00,43.9,41.7,30.30,WSW,248,0.0,0.0,92,0.00,,---,0.00,VWS V14.01,2013-04-21 12:02:00,
2013-04-21 05:07:00,43.9,41.7,30.33,WSW,248,0.0,0.0,92,0.00,,---,0.00,VWS V14.01,2013-04-21 12:07:00,
2013-04-21 05:12:00,43.9,41.7,30.33,WSW,248,0.0,0.0,92,0.00,,---,0.00,VWS V14.01,2013-04-21 12:12:00,
2013-04-21 05:17:00,44.1,42.2,30.33,WSW,248,0.0,0.0,93,0.00,,---,0.00,VWS V14.01,2013-04-21 12:17:00,
2013-04-21 05:22:00,44.1,42.2,30.30,WSW,248,0.0,0.0,93,0.00,,---,0.00,VWS V14.01,2013-04-21 12:22:00,
2013-04-21 05:27:00,44.1,42.2,30.30,WSW,248,0.0,0.0,93,0.00,,---,0.00,VWS V14.01,2013-04-21 12:27:00,
2013-04-21 05:32:00,44.1,42.2,30.30,WSW,248,0.0,0.0,93,0.00,,---,0.00,VWS V14.01,2013-04-21 12:32:00,
2013-04-21 05:37:00,44.1,42.2,30.33,WSW,248,0.0,0.0,93,0.00,,---,0.00,VWS V14.01,2013-04-21 12:37:00,
2013-04-21 05:42:00,44.1,42.2,30.33,WSW,248,0.0,0.0,93,0.00,,---,0.00,VWS V14.01,2013-04-21 12:42:00,
2013-04-21 05:47:00,44.1,42.2,30.33,WSW,248,0.0,0.0,93,0.00,,---,0.00,VWS V14.01,2013-04-21 12:47:00,
2013-04-21 05:52:00,44.1,42.2,30.30,WSW,248,0.0,0.0,93,0.00,,---,0.00,VWS V14.01,2013-04-21 12:52:00,
2013-04-21 05:57:00,43.9,42.0,30.30,South,180,0.0,0.0,93,0.00,,---,0.00,VWS V14.01,2013-04-21 12:57:00,
2013-04-21 06:02:00,43.9,42.0,30.30,South,180,0.0,0.0,93,0.00,,---,0.00,VWS V14.01,2013-04-21 13:02:00,
2013-04-21 06:07:00,43.9,42.3,30.30,South,180,0.0,0.0,94,0.00,,---,0.00,VWS V14.01,2013-04-21 13:07:00,
2013-04-21 06:12:00,43.7,42.1,30.30,South,180,0.0,0.0,94,0.00,,---,0.00,VWS V14.01,2013-04-21 13:12:00,
2013-04-21 06:17:00,43.7,42.1,30.30,South,180,0.0,0.0,94,0.00,,---,0.00,VWS V14.01,2013-04-21 13:17:00,
2013-04-21 06:22:00,43.7,42.1,30.33,South,180,0.0,0.0,94,0.00,,---,0.00,VWS V14.01,2013-04-21 13:22:00,
2013-04-21 06:27:00,43.7,42.1,30.33,South,180,0.0,0.0,94,0.00,,---,0.00,VWS V14.01,2013-04-21 13:27:00,
2013-04-21 06:32:00,43.9,42.5,30.33,South,180,0.0,0.0,95,0.00,,---,0.00,VWS V14.01,2013-04-21 13:32:00,
2013-04-21 06:37:00,43.9,42.5,30.36,WSW,248,0.0,0.0,95,0.00,,---,0.00,VWS V14.01,2013-04-21 13:37:00,
2013-04-21 06:42:00,44.1,42.7,30.36,WSW,248,0.0,0.0,95,0.00,,---,0.00,VWS V14.01,2013-04-21 13:42:00,
2013-04-21 06:47:00,44.2,42.9,30.36,WSW,248,0.0,0.0,95,0.00,,---,0.00,VWS V14.01,2013-04-21 13:47:00,
2013-04-21 06:52:00,44.2,42.9,30.33,WSW,248,0.0,0.0,95,0.00,,---,0.00,VWS V14.01,2013-04-21 13:52:00,
2013-04-21 06:57:00,44.2,42.9,30.33,WSW,248,0.0,0.0,95,0.00,,---,0.00,VWS V14.01,2013-04-21 13:57:00,
2013-04-21 07:02:00,44.4,43.1,30.33,WSW,248,0.0,0.0,95,0.00,,---,0.00,VWS V14.01,2013-04-21 14:02:00,
2013-04-21 07:07:00,44.6,43.3,30.33,WSW,248,0.0,0.0,95,0.00,,---,0.00,VWS V14.01,2013-04-21 14:07:00,
2013-04-21 07:12:00,44.8,43.4,30.33,WSW,248,0.0,0.0,95,0.00,,---,0.00,VWS V14.01,2013-04-21 14:12:00,
2013-04-21 07:17:00,45.1,43.8,30.33,WSW,248,0.0,0.0,95,0.00,,---,0.00,VWS V14.01,2013-04-21 14:17:00,
2013-04-21 07:22:00,45.3,44.0,30.33,WSW,248,0.0,0.0,95,0.00,,---,0.00,VWS V14.01,2013-04-21 14:22:00,
2013-04-21 07:27:00,45.5,44.2,30.33,WSW,248,0.0,0.0,95,0.00,,---,0.00,VWS V14.01,2013-04-21 14:27:00,
2013-04-21 07:32:00,45.7,44.3,30.33,WSW,248,0.0,0.0,95,0.00,,---,0.00,VWS V14.01,2013-04-21 14:32:00,
2013-04-21 07:37:00,45.7,44.1,30.33,WSW,248,0.0,0.0,94,0.00,,---,0.00,VWS V14.01,2013-04-21 14:37:00,
2013-04-21 07:42:00,45.9,44.2,30.33,WSW,248,0.0,0.0,94,0.00,,---,0.00,VWS V14.01,2013-04-21 14:42:00,
2013-04-21 07:48:00,45.9,44.2,30.33,WSW,248,0.0,0.0,94,0.00,,---,0.00,VWS V14.01,2013-04-21 14:48:00,
2013-04-21 07:53:00,45.9,44.2,30.30,SW,225,0.0,0.0,94,0.00,,---,0.00,VWS V14.01,2013-04-21 14:53:00,
2013-04-21 07:58:00,45.9,44.0,30.30,South,180,0.0,0.0,93,0.00,,---,0.00,VWS V14.01,2013-04-21 14:58:00,
2013-04-21 08:03:00,46.0,44.1,30.30,South,180,0.0,0.0,93,0.00,,---,0.00,VWS V14.01,2013-04-21 15:03:00,
2013-04-21 08:08:00,46.2,44.3,30.30,South,180,0.0,0.0,93,0.00,,---,0.00,VWS V14.01,2013-04-21 15:08:00,
2013-04-21 08:13:00,46.2,44.3,30.30,South,180,0.0,0.0,93,0.00,,---,0.00,VWS V14.01,2013-04-21 15:13:00,
2013-04-21 08:18:00,46.4,44.5,30.30,WSW,248,0.0,0.0,93,0.00,,---,0.00,VWS V14.01,2013-04-21 15:18:00,
2013-04-21 08:23:00,46.4,44.2,30.33,WSW,248,0.0,0.0,92,0.00,,---,0.00,VWS V14.01,2013-04-21 15:23:00,
2013-04-21 08:28:00,46.4,44.2,30.33,West,270,0.0,0.0,92,0.00,,---,0.00,VWS V14.01,2013-04-21 15:28:00,
2013-04-21 08:33:00,46.6,44.4,30.33,WSW,248,0.0,0.0,92,0.00,,---,0.00,VWS V14.01,2013-04-21 15:33:00,
2013-04-21 08:38:00,46.8,44.3,30.33,WSW,248,0.0,0.0,91,0.00,,---,0.00,VWS V14.01,2013-04-21 15:38:00,
2013-04-21 08:43:00,46.9,44.5,30.33,WSW,248,0.0,0.0,91,0.00,,---,0.00,VWS V14.01,2013-04-21 15:43:00,
2013-04-21 08:48:00,47.3,44.8,30.33,SSE,158,0.0,0.0,91,0.00,,---,0.00,VWS V14.01,2013-04-21 15:48:00,
2013-04-21 08:53:00,47.5,44.7,30.33,NE,45,0.0,0.0,90,0.00,,---,0.00,VWS V14.01,2013-04-21 15:53:00,
2013-04-21 08:58:00,47.8,45.0,30.33,SSE,158,0.0,0.0,90,0.00,,---,0.00,VWS V14.01,2013-04-21 15:58:00,
2013-04-21 09:03:00,48.0,44.9,30.33,West,270,0.0,0.0,89,0.00,,---,0.00,VWS V14.01,2013-04-21 16:03:00,
2013-04-21 09:08:00,48.6,45.2,30.30,SSW,202,0.0,0.0,88,0.00,,---,0.00,VWS V14.01,2013-04-21 16:08:00,
2013-04-21 09:13:00,48.9,45.5,30.30,East,90,0.0,1.6,88,0.00,,---,0.00,VWS V14.01,2013-04-21 16:13:00,
2013-04-21 09:18:00,49.1,45.1,30.30,WSW,248,0.0,0.0,86,0.00,,---,0.00,VWS V14.01,2013-04-21 16:18:00,
2013-04-21 09:23:00,49.3,44.7,30.33,SE,135,0.0,0.0,84,0.00,,---,0.00,VWS V14.01,2013-04-21 16:23:00,
2013-04-21 09:28:00,49.5,44.8,30.33,ESE,112,0.0,0.0,84,0.00,,---,0.00,VWS V14.01,2013-04-21 16:28:00,
2013-04-21 09:33:00,50.0,45.0,30.33,SE,135,0.0,0.0,83,0.00,,---,0.00,VWS V14.01,2013-04-21 16:33:00,
2013-04-21 09:38:00,50.2,44.9,30.36,SW,225,0.0,1.3,82,0.00,,---,0.00,VWS V14.01,2013-04-21 16:38:00,
2013-04-21 09:43:00,50.2,43.9,30.36,West,270,0.0,0.0,79,0.00,,---,0.00,VWS V14.01,2013-04-21 16:43:00,
2013-04-21 09:49:00,50.7,44.5,30.36,NNE,22,0.0,0.0,79,0.00,,---,0.00,VWS V14.01,2013-04-21 16:49:00,
2013-04-21 09:54:00,50.9,44.0,30.33,North,0,0.0,0.0,77,0.00,,---,0.00,VWS V14.01,2013-04-21 16:54:00,
2013-04-21 09:59:00,50.9,43.6,30.33,SW,225,0.0,0.0,76,0.00,,---,0.00,VWS V14.01,2013-04-21 16:59:00,
2013-04-21 10:04:00,50.9,43.3,30.33,SW,225,0.0,0.0,75,0.00,,---,0.00,VWS V14.01,2013-04-21 17:04:00,
2013-04-21 10:09:00,51.3,43.6,30.33,SSW,202,0.0,0.0,75,0.00,,---,0.00,VWS V14.01,2013-04-21 17:09:00,
2013-04-21 10:14:00,51.3,43.3,30.33,West,270,0.0,0.0,74,0.00,,---,0.00,VWS V14.01,2013-04-21 17:14:00,
2013-04-21 10:19:00,50.9,42.2,30.33,ESE,112,1.3,1.3,72,0.00,,---,0.00,VWS V14.01,2013-04-21 17:19:00,
2013-04-21 10:24:00,51.1,42.4,30.33,NNE,22,0.0,0.0,72,0.00,,---,0.00,VWS V14.01,2013-04-21 17:24:00,
2013-04-21 10:29:00,50.9,42.6,30.33,West,270,0.0,0.0,73,0.00,,---,0.00,VWS V14.01,2013-04-21 17:29:00,
2013-04-21 10:34:00,50.9,42.6,30.33,South,180,0.0,0.0,73,0.00,,---,0.00,VWS V14.01,2013-04-21 17:34:00,
2013-04-21 10:39:00,51.1,43.1,30.33,West,270,0.0,0.0,74,0.00,,---,0.00,VWS V14.01,2013-04-21 17:39:00,
2013-04-21 10:44:00,51.3,43.3,30.33,WNW,292,0.0,0.0,74,0.00,,---,0.00,VWS V14.01,2013-04-21 17:44:00,
2013-04-21 10:49:00,51.3,43.6,30.33,WNW,292,0.0,0.0,75,0.00,,---,0.00,VWS V14.01,2013-04-21 17:49:00,
2013-04-21 10:54:00,51.3,43.6,30.33,WNW,292,0.0,0.0,75,0.00,,---,0.00,VWS V14.01,2013-04-21 17:54:00,
2013-04-21 10:59:00,50.7,43.1,30.33,NNE,22,0.0,1.1,75,0.00,,---,0.00,VWS V14.01,2013-04-21 17:59:00,
2013-04-21 11:04:00,50.7,43.4,30.33,NNE,22,0.0,0.0,76,0.00,,---,0.00,VWS V14.01,2013-04-21 18:04:00,
2013-04-21 11:09:00,50.9,44.0,30.33,NNW,338,0.0,0.0,77,0.00,,---,0.00,VWS V14.01,2013-04-21 18:09:00,
2013-04-21 11:14:00,50.9,44.0,30.33,NNE,22,0.0,0.0,77,0.00,,---,0.00,VWS V14.01,2013-04-21 18:14:00,
2013-04-21 11:19:00,51.1,44.1,30.33,NNW,338,0.0,1.1,77,0.00,,---,0.00,VWS V14.01,2013-04-21 18:19:00,
2013-04-21 11:24:00,51.4,44.5,30.33,SSE,158,0.0,0.0,77,0.00,,---,0.00,VWS V14.01,2013-04-21 18:24:00,
2013-04-21 11:29:00,51.4,44.1,30.33,SSW,202,1.6,1.6,76,0.00,,---,0.00,VWS V14.01,2013-04-21 18:29:00,
2013-04-21 11:35:00,51.4,44.5,30.33,SSW,202,0.0,1.3,77,0.00,,---,0.00,VWS V14.01,2013-04-21 18:35:00,
2013-04-21 11:40:00,51.3,44.0,30.33,West,270,1.6,2.2,76,0.00,,---,0.00,VWS V14.01,2013-04-21 18:40:00,
2013-04-21 11:45:00,51.1,43.8,30.33,ESE,112,0.0,0.0,76,0.00,,---,0.00,VWS V14.01,2013-04-21 18:45:00,
2013-04-21 11:50:00,51.1,43.8,30.33,WSW,248,0.0,0.0,76,0.00,,---,0.00,VWS V14.01,2013-04-21 18:50:00,
2013-04-21 11:55:00,51.6,45.0,30.33,NW,315,0.0,0.0,78,0.00,,---,0.00,VWS V14.01,2013-04-21 18:55:00,
2013-04-21 12:00:00,51.8,44.8,30.33,South,180,1.6,2.5,77,0.00,,---,0.00,VWS V14.01,2013-04-21 19:00:00,
2013-04-21 12:05:00,51.8,44.8,30.33,South,180,0.0,0.0,77,0.00,,---,0.00,VWS V14.01,2013-04-21 19:05:00,
2013-04-21 12:10:00,52.2,45.2,30.33,West,270,0.0,1.1,77,0.00,,---,0.00,VWS V14.01,2013-04-21 19:10:00,
2013-04-21 12:15:00,52.3,45.3,30.33,West,270,0.0,0.0,77,0.00,,---,0.00,VWS V14.01,2013-04-21 19:15:00,
2013-04-21 12:20:00,53.1,46.0,30.33,WNW,292,0.0,0.0,77,0.00,,---,0.00,VWS V14.01,2013-04-21 19:20:00,
2013-04-21 12:25:00,52.9,45.2,30.33,NNE,22,0.0,0.0,75,0.00,,---,0.00,VWS V14.01,2013-04-21 19:25:00,
2013-04-21 12:30:00,51.8,43.8,30.33,ENE,68,0.0,2.2,74,0.00,,---,0.00,VWS V14.01,2013-04-21 19:30:00,
2013-04-21 12:35:00,51.6,44.3,30.33,NE,45,2.0,2.9,76,0.00,,---,0.00,VWS V14.01,2013-04-21 19:35:00,
2013-04-21 12:40:00,51.1,44.1,30.33,NNE,22,0.0,0.0,77,0.00,,---,0.00,VWS V14.01,2013-04-21 19:40:00,
2013-04-21 12:45:00,51.4,44.8,30.33,SSE,158,0.0,0.0,78,0.00,,---,0.00,VWS V14.01,2013-04-21 19:45:00,
2013-04-21 12:50:00,52.0,45.7,30.30,SSE,158,0.0,0.0,79,0.00,,---,0.00,VWS V14.01,2013-04-21 19:50:00,
2013-04-21 12:55:00,52.2,45.8,30.30,West,270,0.0,0.0,79,0.00,,---,0.00,VWS V14.01,2013-04-21 19:55:00,
2013-04-21 13:00:00,51.6,45.7,30.30,West,270,0.9,1.3,80,0.00,,---,0.00,VWS V14.01,2013-04-21 20:00:00,
2013-04-21 13:06:00,51.1,45.1,30.30,SW,225,1.3,1.3,80,0.00,,---,0.00,VWS V14.01,2013-04-21 20:06:00,
2013-04-21 13:11:00,50.7,45.1,30.30,South,180,0.0,0.0,81,0.00,,---,0.00,VWS V14.01,2013-04-21 20:11:00,
2013-04-21 13:16:00,50.9,45.3,30.30,WSW,248,1.1,1.1,81,0.00,,---,0.00,VWS V14.01,2013-04-21 20:16:00,
2013-04-21 13:21:00,51.6,46.6,30.36,South,180,2.0,2.0,83,0.00,,---,0.00,VWS V14.01,2013-04-21 20:21:00,
2013-04-21 13:26:00,52.3,47.3,30.36,SSE,158,2.5,2.5,83,0.00,,---,0.00,VWS V14.01,2013-04-21 20:26:00,
2013-04-21 13:31:00,52.5,47.5,30.36,East,90,0.0,0.0,83,0.00,,---,0.00,VWS V14.01,2013-04-21 20:31:00,
2013-04-21 13:36:00,52.9,47.9,30.36,WSW,248,0.0,0.0,83,0.00,,---,0.00,VWS V14.01,2013-04-21 20:36:00,
2013-04-21 13:41:00,53.2,48.2,30.36,SSW,202,0.9,2.0,83,0.00,,---,0.00,VWS V14.01,2013-04-21 20:41:00,
2013-04-21 13:46:00,53.8,48.4,30.36,NE,45,0.0,0.0,82,0.00,,---,0.00,VWS V14.01,2013-04-21 20:46:00,
2013-04-21 13:51:00,53.8,47.8,30.33,West,270,0.0,0.0,80,0.00,,---,0.00,VWS V14.01,2013-04-21 20:51:00,
2013-04-21 13:56:00,54.0,47.9,30.33,SW,225,0.0,0.0,80,0.00,,---,0.00,VWS V14.01,2013-04-21 20:56:00,
2013-04-21 14:01:00,55.0,49.3,30.33,ENE,68,0.0,0.0,81,0.00,,---,0.00,VWS V14.01,2013-04-21 21:01:00,
2013-04-21 14:06:00,55.2,48.2,30.33,South,180,0.9,0.9,77,0.00,,---,0.00,VWS V14.01,2013-04-21 21:06:00,
2013-04-21 14:11:00,56.1,48.3,30.33,WSW,248,2.0,2.9,75,0.00,,---,0.00,VWS V14.01,2013-04-21 21:11:00,
2013-04-21 14:16:00,56.3,47.8,30.33,West,270,0.0,0.0,73,0.00,,---,0.00,VWS V14.01,2013-04-21 21:16:00,
2013-04-21 14:21:00,55.9,47.1,30.33,West,270,1.1,2.0,72,0.00,,---,0.00,VWS V14.01,2013-04-21 21:21:00,
2013-04-21 14:26:00,56.3,47.0,30.33,West,270,0.0,0.0,71,0.00,,---,0.00,VWS V14.01,2013-04-21 21:26:00,
2013-04-21 14:31:00,55.9,44.8,30.33,West,270,2.2,3.4,66,0.00,,---,0.00,VWS V14.01,2013-04-21 21:31:00,
2013-04-21 14:36:00,56.1,45.3,30.33,West,270,0.0,0.0,67,0.00,,---,0.00,VWS V14.01,2013-04-21 21:36:00,
2013-04-21 14:41:00,56.5,46.1,30.33,WNW,292,0.0,0.0,68,0.00,,---,0.00,VWS V14.01,2013-04-21 21:41:00,
2013-04-21 14:46:00,56.8,46.8,30.33,West,270,0.0,0.0,69,0.00,,---,0.00,VWS V14.01,2013-04-21 21:46:00,
2013-04-21 14:51:00,57.2,46.8,30.30,West,270,0.0,0.0,68,0.00,,---,0.00,VWS V14.01,2013-04-21 21:51:00,
2013-04-21 14:56:00,56.8,46.4,30.30,West,270,0.0,0.0,68,0.00,,---,0.00,VWS V14.01,2013-04-21 21:56:00,
2013-04-21 15:02:00,56.8,46.4,30.30,SW,225,0.0,0.0,68,0.00,,---,0.00,VWS V14.01,2013-04-21 22:02:00,
2013-04-21 15:07:00,56.8,46.8,30.33,West,270,1.6,1.6,69,0.00,,---,0.00,VWS V14.01,2013-04-21 22:07:00,
2013-04-21 15:12:00,57.2,46.8,30.33,West,270,0.0,0.0,68,0.00,,---,0.00,VWS V14.01,2013-04-21 22:12:00,
2013-04-21 15:17:00,57.2,46.8,30.33,NW,315,0.0,0.0,68,0.00,,---,0.00,VWS V14.01,2013-04-21 22:17:00,
2013-04-21 15:22:00,57.0,45.4,30.33,West,270,0.0,0.0,65,0.00,,---,0.00,VWS V14.01,2013-04-21 22:22:00,
2013-04-21 15:27:00,57.2,46.4,30.33,WNW,292,0.0,0.0,67,0.00,,---,0.00,VWS V14.01,2013-04-21 22:27:00,
2013-04-21 15:32:00,57.4,46.1,30.33,WNW,292,0.0,2.7,66,0.00,,---,0.00,VWS V14.01,2013-04-21 22:32:00,
2013-04-21 15:37:00,57.0,45.8,30.33,West,270,0.0,0.0,66,0.00,,---,0.00,VWS V14.01,2013-04-21 22:37:00,
2013-04-21 15:42:00,56.8,46.0,30.33,NNE,22,0.0,0.0,67,0.00,,---,0.00,VWS V14.01,2013-04-21 22:42:00,
2013-04-21 15:47:00,56.8,46.0,30.33,West,270,0.0,2.7,67,0.00,,---,0.00,VWS V14.01,2013-04-21 22:47:00,
2013-04-21 15:52:00,57.2,46.4,30.33,WNW,292,0.0,0.0,67,0.00,,---,0.00,VWS V14.01,2013-04-21 22:52:00,
2013-04-21 15:57:00,57.2,45.6,30.33,West,270,0.0,3.4,65,0.00,,---,0.00,VWS V14.01,2013-04-21 22:57:00,
2013-04-21 16:02:00,57.0,46.2,30.33,West,270,0.0,0.0,67,0.00,,---,0.00,VWS V14.01,2013-04-21 23:02:00,
2013-04-21 16:07:00,56.8,45.6,30.33,NNE,22,0.0,1.3,66,0.00,,---,0.00,VWS V14.01,2013-04-21 23:07:00,
2013-04-21 16:12:00,56.7,45.8,30.33,West,270,0.0,3.4,67,0.00,,---,0.00,VWS V14.01,2013-04-21 23:12:00,
2013-04-21 16:17:00,56.3,44.7,30.33,WNW,292,0.0,2.9,65,0.00,,---,0.00,VWS V14.01,2013-04-21 23:17:00,
2013-04-21 16:22:00,56.7,45.8,30.33,North,0,2.0,2.0,67,0.00,,---,0.00,VWS V14.01,2013-04-21 23:22:00,
2013-04-21 16:27:00,56.5,46.1,30.33,North,0,0.0,0.0,68,0.00,,---,0.00,VWS V14.01,2013-04-21 23:27:00,
2013-04-21 16:32:00,56.5,46.1,30.33,WNW,292,0.0,0.0,68,0.00,,---,0.00,VWS V14.01,2013-04-21 23:32:00,
2013-04-21 16:37:00,55.9,45.5,30.33,West,270,1.3,1.6,68,0.00,,---,0.00,VWS V14.01,2013-04-21 23:37:00,
2013-04-21 16:43:00,55.6,45.2,30.33,West,270,0.0,0.0,68,0.00,,---,0.00,VWS V14.01,2013-04-21 23:43:00,
2013-04-21 16:48:00,55.4,45.0,30.33,WSW,248,2.9,2.9,68,0.00,,---,0.00,VWS V14.01,2013-04-21 23:48:00,
2013-04-21 16:53:00,55.2,45.2,30.33,SSW,202,2.5,2.5,69,0.00,,---,0.00,VWS V14.01,2013-04-21 23:53:00,
2013-04-21 16:58:00,55.4,45.0,30.33,WNW,292,0.9,0.9,68,0.00,,---,0.00,VWS V14.01,2013-04-21 23:58:00,
2013-04-21 17:03:00,55.6,45.2,30.33,WSW,248,2.7,3.4,68,0.00,,---,0.00,VWS V14.01,2013-04-22 00:03:00,
2013-04-21 17:08:00,55.6,45.2,30.33,ENE,68,0.0,2.0,68,0.00,,---,0.00,VWS V14.01,2013-04-22 00:08:00,
2013-04-21 17:13:00,55.2,44.5,30.33,WSW,248,0.0,1.1,67,0.00,,---,0.00,VWS V14.01,2013-04-22 00:13:00,
2013-04-21 17:18:00,55.4,45.0,30.33,West,270,1.6,2.0,68,0.00,,---,0.00,VWS V14.01,2013-04-22 00:18:00,
2013-04-21 17:23:00,55.6,45.2,30.33,West,270,1.1,1.1,68,0.00,,---,0.00,VWS V14.01,2013-04-22 00:23:00,
2013-04-21 17:28:00,55.2,42.9,30.33,West,270,2.0,2.2,63,0.00,,---,0.00,VWS V14.01,2013-04-22 00:28:00,
2013-04-21 17:33:00,54.5,42.2,30.33,West,270,0.0,2.5,63,0.00,,---,0.00,VWS V14.01,2013-04-22 00:33:00,
2013-04-21 17:38:00,54.5,43.0,30.33,WNW,292,3.4,3.4,65,0.00,,---,0.00,VWS V14.01,2013-04-22 00:38:00,
2013-04-21 17:43:00,54.7,43.6,30.33,WSW,248,2.5,2.5,66,0.00,,---,0.00,VWS V14.01,2013-04-22 00:43:00,
2013-04-21 17:48:00,54.5,43.4,30.33,West,270,0.0,0.0,66,0.00,,---,0.00,VWS V14.01,2013-04-22 00:48:00,
2013-04-21 17:53:00,54.5,43.4,30.33,NNE,22,1.1,2.2,66,0.00,,---,0.00,VWS V14.01,2013-04-22 00:53:00,
2013-04-21 17:58:00,54.3,43.2,30.33,NNW,338,0.0,3.4,66,0.00,,---,0.00,VWS V14.01,2013-04-22 00:58:00,
2013-04-21 18:03:00,54.1,43.4,30.33,NE,45,0.0,0.9,67,0.00,,---,0.00,VWS V14.01,2013-04-22 01:03:00,
2013-04-21 18:08:00,53.6,42.9,30.30,WSW,248,0.0,2.7,67,0.00,,---,0.00,VWS V14.01,2013-04-22 01:08:00,
2013-04-21 18:13:00,53.4,42.8,30.30,WSW,248,0.0,0.0,67,0.00,,---,0.00,VWS V14.01,2013-04-22 01:13:00,
2013-04-21 18:18:00,53.1,42.0,30.30,West,270,0.0,0.0,66,0.00,,---,0.00,VWS V14.01,2013-04-22 01:18:00,
2013-04-21 18:23:00,52.7,42.1,30.33,West,270,2.9,2.9,67,0.00,,---,0.00,VWS V14.01,2013-04-22 01:23:00,
2013-04-21 18:29:00,52.3,42.1,30.33,West,270,0.0,0.0,68,0.00,,---,0.00,VWS V14.01,2013-04-22 01:29:00,
2013-04-21 18:34:00,52.7,42.8,30.33,West,270,0.0,0.0,69,0.00,,---,0.00,VWS V14.01,2013-04-22 01:34:00,
2013-04-21 18:39:00,52.9,43.0,30.33,NW,315,0.0,0.0,69,0.00,,---,0.00,VWS V14.01,2013-04-22 01:39:00,
2013-04-21 18:44:00,52.5,42.7,30.33,WNW,292,0.0,0.0,69,0.00,,---,0.00,VWS V14.01,2013-04-22 01:44:00,
2013-04-21 18:49:00,52.2,42.7,30.33,West,270,2.0,2.0,70,0.00,,---,0.00,VWS V14.01,2013-04-22 01:49:00,
2013-04-21 18:54:00,51.6,42.2,30.33,WNW,292,0.0,0.0,70,0.00,,---,0.00,VWS V14.01,2013-04-22 01:54:00,
2013-04-21 18:59:00,51.6,42.5,30.33,WNW,292,0.0,0.0,71,0.00,,---,0.00,VWS V14.01,2013-04-22 01:59:00,
2013-04-21 19:04:00,51.4,42.7,30.33,West,270,0.0,1.6,72,0.00,,---,0.00,VWS V14.01,2013-04-22 02:04:00,
2013-04-21 19:09:00,51.3,42.5,30.33,West,270,0.9,1.1,72,0.00,,---,0.00,VWS V14.01,2013-04-22 02:09:00,
2013-04-21 19:14:00,51.1,42.7,30.33,West,270,0.0,0.0,73,0.00,,---,0.00,VWS V14.01,2013-04-22 02:14:00,
2013-04-21 19:19:00,50.9,42.6,30.33,WSW,248,0.0,0.0,73,0.00,,---,0.00,VWS V14.01,2013-04-22 02:19:00,
2013-04-21 19:24:00,50.7,42.4,30.33,West,270,0.9,0.9,73,0.00,,---,0.00,VWS V14.01,2013-04-22 02:24:00,
2013-04-21 19:29:00,50.5,42.2,30.33,West,270,0.0,0.0,73,0.00,,---,0.00,VWS V14.01,2013-04-22 02:29:00,
2013-04-21 19:34:00,50.4,42.4,30.33,West,270,0.0,0.0,74,0.00,,---,0.00,VWS V14.01,2013-04-22 02:34:00,
2013-04-21 19:39:00,50.0,42.0,30.33,West,270,0.0,0.0,74,0.00,,---,0.00,VWS V14.01,2013-04-22 02:39:00,
2013-04-21 19:44:00,49.8,42.2,30.33,North,0,0.0,3.6,75,0.00,,---,0.00,VWS V14.01,2013-04-22 02:44:00,
2013-04-21 19:49:00,49.5,41.9,30.33,WNW,292,2.9,2.9,75,0.00,,---,0.00,VWS V14.01,2013-04-22 02:49:00,
2013-04-21 19:54:00,49.3,41.7,30.33,West,270,0.0,0.0,75,0.00,,---,0.00,VWS V14.01,2013-04-22 02:54:00,
2013-04-21 20:00:00,48.9,41.4,30.33,WNW,292,0.0,0.0,75,0.00,,---,0.00,VWS V14.01,2013-04-22 03:00:00,
2013-04-21 20:05:00,48.7,41.5,30.33,West,270,0.0,0.0,76,0.00,,---,0.00,VWS V14.01,2013-04-22 03:05:00,
2013-04-21 20:10:00,48.2,40.7,30.33,WNW,292,0.0,0.0,75,0.00,,---,0.00,VWS V14.01,2013-04-22 03:10:00,
2013-04-21 20:15:00,47.8,40.7,30.33,WNW,292,0.0,0.0,76,0.00,,---,0.00,VWS V14.01,2013-04-22 03:15:00,
2013-04-21 20:20:00,47.7,40.8,30.33,WNW,292,0.0,0.0,77,0.00,,---,0.00,VWS V14.01,2013-04-22 03:20:00,
2013-04-21 20:25:00,47.3,40.5,30.33,West,270,0.0,0.0,77,0.00,,---,0.00,VWS V14.01,2013-04-22 03:25:00,
2013-04-21 20:30:00,46.8,40.3,30.33,WNW,292,0.0,0.0,78,0.00,,---,0.00,VWS V14.01,2013-04-22 03:30:00,
2013-04-21 20:35:00,46.4,39.9,30.30,West,270,0.0,0.0,78,0.00,,---,0.00,VWS V14.01,2013-04-22 03:35:00,
2013-04-21 20:40:00,46.0,39.9,30.30,West,270,0.0,0.0,79,0.00,,---,0.00,VWS V14.01,2013-04-22 03:40:00,
2013-04-21 20:45:00,46.0,41.2,30.30,West,270,1.6,2.0,83,0.00,,---,0.00,VWS V14.01,2013-04-22 03:45:00,
2013-04-21 20:50:00,45.9,41.3,30.33,WSW,248,1.3,2.5,84,0.00,,---,0.00,VWS V14.01,2013-04-22 03:50:00,
2013-04-21 20:55:00,45.5,41.0,30.33,West,270,1.1,1.1,84,0.00,,---,0.00,VWS V14.01,2013-04-22 03:55:00,
2013-04-21 21:00:00,45.1,40.6,30.33,West,270,1.1,1.1,84,0.00,,---,0.00,VWS V14.01,2013-04-22 04:00:00,
2013-04-21 21:01:00,45.1,40.6,30.33,West,270,0.0,1.3,84,0.00,,---,0.00,VWS V14.01,2013-04-22 04:01:00,
2013-04-21 21:03:00,45.1,40.3,30.33,West,270,0.0,0.0,83,0.00,,---,0.00,VWS V14.01,2013-04-22 04:03:00,
2013-04-21 21:08:00,44.6,39.8,30.33,West,270,0.0,0.0,83,0.00,,---,0.00,VWS V14.01,2013-04-22 04:08:00,
2013-04-21 21:13:00,44.2,39.4,30.33,West,270,0.0,0.0,83,0.00,,---,0.00,VWS V14.01,2013-04-22 04:13:00,
2013-04-21 21:18:00,43.7,38.9,30.33,WNW,292,0.0,0.0,83,0.00,,---,0.00,VWS V14.01,2013-04-22 04:18:00,
2013-04-21 21:23:00,43.3,38.5,30.36,NNW,338,0.0,0.0,83,0.00,,---,0.00,VWS V14.01,2013-04-22 04:23:00,
2013-04-21 21:28:00,43.2,38.7,30.36,NNW,338,0.0,0.0,84,0.00,,---,0.00,VWS V14.01,2013-04-22 04:28:00,
2013-04-21 21:33:00,43.3,39.1,30.36,NNW,338,0.0,0.0,85,0.00,,---,0.00,VWS V14.01,2013-04-22 04:33:00,
2013-04-21 21:38:00,43.2,39.0,30.36,NNW,338,0.0,0.0,85,0.00,,---,0.00,VWS V14.01,2013-04-22 04:38:00,
2013-04-21 21:43:00,42.8,38.6,30.36,NNW,338,0.0,0.0,85,0.00,,---,0.00,VWS V14.01,2013-04-22 04:43:00,
2013-04-21 21:48:00,42.3,38.1,30.36,NNW,338,0.0,0.0,85,0.00,,---,0.00,VWS V14.01,2013-04-22 04:48:00,
2013-04-21 21:54:00,42.1,37.9,30.36,West,270,0.0,0.0,85,0.00,,---,0.00,VWS V14.01,2013-04-22 04:54:00,
2013-04-21 21:59:00,41.5,37.7,30.36,West,270,0.0,0.0,86,0.00,,---,0.00,VWS V14.01,2013-04-22 04:59:00,
2013-04-21 22:04:00,41.4,37.5,30.36,West,270,0.0,0.0,86,0.00,,---,0.00,VWS V14.01,2013-04-22 05:04:00,
2013-04-21 22:09:00,41.0,37.1,30.39,West,270,0.0,0.0,86,0.00,,---,0.00,VWS V14.01,2013-04-22 05:09:00,
2013-04-21 22:14:00,41.0,37.4,30.39,West,270,0.0,0.0,87,0.00,,---,0.00,VWS V14.01,2013-04-22 05:14:00,
2013-04-21 22:19:00,41.2,37.6,30.39,West,270,0.0,0.0,87,0.00,,---,0.00,VWS V14.01,2013-04-22 05:19:00,
2013-04-21 22:24:00,41.4,38.1,30.39,West,270,0.0,0.0,88,0.00,,---,0.00,VWS V14.01,2013-04-22 05:24:00,
2013-04-21 22:29:00,41.5,38.5,30.39,West,270,0.0,0.0,89,0.00,,---,0.00,VWS V14.01,2013-04-22 05:29:00,
2013-04-21 22:34:00,41.5,38.5,30.39,West,270,0.0,0.0,89,0.00,,---,0.00,VWS V14.01,2013-04-22 05:34:00,
2013-04-21 22:39:00,41.7,39.0,30.39,West,270,0.0,0.0,90,0.00,,---,0.00,VWS V14.01,2013-04-22 05:39:00,
2013-04-21 22:44:00,41.9,39.2,30.39,West,270,0.0,0.0,90,0.00,,---,0.00,VWS V14.01,2013-04-22 05:44:00,
2013-04-21 22:49:00,41.9,39.2,30.36,West,270,0.0,0.0,90,0.00,,---,0.00,VWS V14.01,2013-04-22 05:49:00,
2013-04-21 22:54:00,41.7,39.0,30.36,West,270,0.0,0.0,90,0.00,,---,0.00,VWS V14.01,2013-04-22 05:54:00,
2013-04-21 22:59:00,41.7,39.3,30.36,West,270,0.0,0.0,91,0.00,,---,0.00,VWS V14.01,2013-04-22 05:59:00,
2013-04-21 23:04:00,42.1,39.7,30.39,West,270,0.0,0.0,91,0.00,,---,0.00,VWS V14.01,2013-04-22 06:04:00,
2013-04-21 23:09:00,41.9,39.5,30.39,West,270,0.0,0.0,91,0.00,,---,0.00,VWS V14.01,2013-04-22 06:09:00,
2013-04-21 23:14:00,41.7,39.3,30.39,West,270,0.0,0.0,91,0.00,,---,0.00,VWS V14.01,2013-04-22 06:14:00,
2013-04-21 23:19:00,41.4,38.7,30.39,West,270,0.0,0.0,90,0.00,,---,0.00,VWS V14.01,2013-04-22 06:19:00,
2013-04-21 23:24:00,41.0,38.3,30.39,West,270,0.0,0.0,90,0.00,,---,0.00,VWS V14.01,2013-04-22 06:24:00,
2013-04-21 23:29:00,40.6,38.2,30.39,West,270,0.0,0.0,91,0.00,,---,0.00,VWS V14.01,2013-04-22 06:29:00,
2013-04-21 23:34:00,40.3,37.9,30.39,West,270,0.0,0.0,91,0.00,,---,0.00,VWS V14.01,2013-04-22 06:34:00,
2013-04-21 23:39:00,40.1,37.7,30.39,West,270,0.0,0.0,91,0.00,,---,0.00,VWS V14.01,2013-04-22 06:39:00,
2013-04-21 23:44:00,39.7,37.6,30.39,West,270,0.0,0.0,92,0.00,,---,0.00,VWS V14.01,2013-04-22 06:44:00,
2013-04-21 23:49:00,39.2,37.1,30.41,West,270,0.0,0.0,92,0.00,,---,0.00,VWS V14.01,2013-04-22 06:49:00,
2013-04-21 23:54:00,39.0,36.9,30.41,West,270,0.0,0.0,92,0.00,,---,0.00,VWS V14.01,2013-04-22 06:54:00,